GLRB Airport Information

Runway Information
Runway 04 Length 11000 ft width 150 ft
Elevation 29 ft Threshold 0 ft Heading 31
Runway 22 Length 11000 ft Width 150 ft
Elevation 25 ft Threshold 1200 ft Heading 211
Airport Frequencies
Type A/G Name A/G VOICE Frequency 345.2 MHZ
Type APP Name ROBERTS AP Frequency 124.5 MHZ
Type GND Name GND Frequency 121.9 MHZ
Type TWR Name ROBERTS TW Frequency 118.3 MHZ
Airport Navaids
Type NDB Name Monrovia Roberts Frequency 263 KHZ
Type NDB Name Monrovia Roberts Frequency 372 KHZ
Type VOR-DME Name Monrovia Roberts Frequency 113800 KHZ
Airport Weather Information & NOTAM
ADDS - METARS form results

(0132 UTC 19 August 2018)
 
METAR text: GLRB 190130Z 00000KT 8000 -RA FEW005 BKN011 FEW022CB 24/23 Q1013 TEMPO RA RMK CB-SW
Conditions at: GLRB (ROBERTS INTL/MON, LR) observed 0130 UTC 19 August 2018
Temperature: 24.0°C (75°F)
Dewpoint: 23.0°C (73°F) [RH = 94%]
Pressure (altimeter): 29.91 inches Hg (1013.0 mb)
Winds: calm
Visibility: 5 miles (8 km)
Ceiling: 1100 feet AGL
Clouds: few clouds at 500 feet AGL
broken clouds at 1100 feet AGL
few clouds at 2200 feet AGL
Weather: -RA  (light rain)

METAR text: GLRB 190100Z 00000KT 7000 -RA SCT005 BKN011 FEW022CB 24/23 Q1014 TEMPO RA RMK CB-SW
Conditions at: GLRB (ROBERTS INTL/MON, LR) observed 0100 UTC 19 August 2018
Temperature: 24.0°C (75°F)
Dewpoint: 23.0°C (73°F) [RH = 94%]
Pressure (altimeter): 29.94 inches Hg (1014.0 mb)
Winds: calm
Visibility: 4 miles (7 km)
Ceiling: 1100 feet AGL
Clouds: scattered clouds at 500 feet AGL
broken clouds at 1100 feet AGL
few clouds at 2200 feet AGL
Weather: -RA  (light rain)